Time;durP1;ratioP1;P1;durP2;ratioP2;P2;SDS_P1;SDS_P2;PMS_P1;PMS_P2;Temp;Humidity;BMP_temperature;BMP_pressure;BME280_temperature;BME280_humidity;BME280_pressure;Samples;Min_cycle;Max_cycle;Signal;HPM_P1;HPM_P2
2023/10/29 00:00:12;;;;;;;9.57;2.97;;;14.50;99.70;;;;;;5053184;28;20059;-75
2023/10/29 00:02:38;;;;;;;13.13;3.25;;;14.50;99.90;;;;;;5053267;28;20027;-74
2023/10/29 00:05:07;;;;;;;11.63;3.10;;;14.50;99.90;;;;;;5053238;28;20108;-74
2023/10/29 00:07:33;;;;;;;10.40;3.10;;;14.50;99.90;;;;;;5053083;28;20068;-74
2023/10/29 00:09:59;;;;;;;12.23;3.20;;;14.50;99.90;;;;;;5052659;28;20048;-74
2023/10/29 00:12:28;;;;;;;11.23;3.03;;;14.50;99.90;;;;;;5035170;28;20032;-75
2023/10/29 00:14:54;;;;;;;9.55;2.92;;;14.50;99.90;;;;;;5053265;28;20028;-74
2023/10/29 00:17:20;;;;;;;10.15;2.53;;;14.50;99.90;;;;;;5052915;28;20087;-75
2023/10/29 00:19:46;;;;;;;10.63;2.95;;;14.50;99.90;;;;;;5052861;28;20434;-75
2023/10/29 00:22:12;;;;;;;11.38;2.97;;;14.40;99.90;;;;;;5052704;28;20021;-74
2023/10/29 00:24:40;;;;;;;10.48;3.00;;;14.40;99.90;;;;;;5052780;28;20028;-75
2023/10/29 00:27:06;;;;;;;16.25;2.95;;;14.40;99.90;;;;;;5052565;28;20036;-74
2023/10/29 00:29:36;;;;;;;9.93;3.40;;;14.40;99.90;;;;;;5052632;28;20021;-74
2023/10/29 00:32:08;;;;;;;10.05;2.92;;;14.40;99.90;;;;;;5052447;28;20013;-75
2023/10/29 00:34:35;;;;;;;15.00;2.95;;;14.40;99.90;;;;;;5034074;28;20060;-74
2023/10/29 00:37:07;;;;;;;14.40;3.38;;;14.30;99.90;;;;;;5030656;28;20104;-74
2023/10/29 00:39:33;;;;;;;7.75;2.72;;;14.30;99.90;;;;;;5031724;28;20037;-74
2023/10/29 00:41:59;;;;;;;11.68;3.15;;;14.30;99.90;;;;;;5031660;28;20036;-75
2023/10/29 00:44:28;;;;;;;12.25;2.95;;;14.30;99.90;;;;;;5030456;28;20057;-75
2023/10/29 00:46:55;;;;;;;10.52;2.60;;;14.30;99.90;;;;;;5032031;28;20021;-74
2023/10/29 00:49:24;;;;;;;16.98;4.07;;;14.30;99.90;;;;;;5031476;28;20057;-74
2023/10/29 00:51:51;;;;;;;11.00;4.18;;;14.30;99.90;;;;;;5031511;28;20029;-74
2023/10/29 00:54:21;;;;;;;13.55;4.00;;;14.30;99.90;;;;;;5031724;28;20359;-74
2023/10/29 00:56:47;;;;;;;10.02;3.78;;;14.30;99.90;;;;;;5033965;28;20025;-74
2023/10/29 00:59:16;;;;;;;14.52;4.90;;;14.30;99.90;;;;;;5035103;28;20033;-74
2023/10/29 01:01:43;;;;;;;13.65;4.05;;;14.20;99.90;;;;;;5033934;28;20018;-74
2023/10/29 01:04:09;;;;;;;12.18;3.55;;;14.30;99.90;;;;;;5034984;28;20037;-74
2023/10/29 01:06:38;;;;;;;12.98;3.03;;;14.20;99.90;;;;;;5035162;28;20029;-74
2023/10/29 01:09:08;;;;;;;9.95;2.40;;;14.20;99.90;;;;;;5035048;28;20108;-74
2023/10/29 01:11:38;;;;;;;12.30;3.25;;;14.10;99.90;;;;;;5034907;28;20033;-74
2023/10/29 01:14:07;;;;;;;6.53;2.58;;;14.20;99.90;;;;;;5034644;28;20029;-74
2023/10/29 01:16:33;;;;;;;13.18;2.58;;;14.20;99.90;;;;;;5034605;28;20397;-74
2023/10/29 01:18:59;;;;;;;6.78;2.40;;;14.10;99.90;;;;;;5034944;28;20040;-74
2023/10/29 01:21:30;;;;;;;8.70;2.47;;;14.10;99.90;;;;;;5034538;28;20022;-74
2023/10/29 01:23:56;;;;;;;10.07;2.92;;;14.10;99.90;;;;;;5034445;28;20101;-74
2023/10/29 01:26:21;;;;;;;9.40;2.13;;;14.00;99.90;;;;;;5034867;28;20359;-74
2023/10/29 01:28:48;;;;;;;12.18;2.35;;;14.00;99.90;;;;;;5034946;28;20033;-74
2023/10/29 01:31:14;;;;;;;8.43;2.47;;;14.00;99.90;;;;;;5034704;28;20030;-74
2023/10/29 01:33:43;;;;;;;10.45;2.85;;;14.00;99.90;;;;;;4997595;28;1355570;-74
2023/10/29 01:36:09;;;;;;;9.90;2.80;;;14.00;99.90;;;;;;5055923;28;20101;-75
2023/10/29 01:38:35;;;;;;;14.10;3.33;;;14.00;99.90;;;;;;5055428;28;20517;-74
2023/10/29 01:41:00;;;;;;;13.80;3.13;;;14.00;99.90;;;;;;5055826;28;20053;-74
2023/10/29 01:43:26;;;;;;;6.93;2.85;;;14.00;99.90;;;;;;5055874;28;20029;-74
2023/10/29 01:45:55;;;;;;;9.25;2.90;;;13.90;99.90;;;;;;5055771;28;20424;-74
2023/10/29 01:48:24;;;;;;;6.97;2.50;;;13.90;99.90;;;;;;5055525;28;20025;-74
2023/10/29 01:50:51;;;;;;;8.35;2.85;;;13.90;99.90;;;;;;5055483;28;20377;-74
2023/10/29 01:53:17;;;;;;;10.10;2.97;;;14.00;99.90;;;;;;5037625;28;20078;-74
2023/10/29 01:55:43;;;;;;;7.78;3.20;;;14.00;99.90;;;;;;5055489;28;20021;-74
2023/10/29 01:58:09;;;;;;;12.88;4.30;;;13.90;99.90;;;;;;5054267;28;20171;-75
2023/10/29 02:00:35;;;;;;;10.35;2.50;;;13.90;99.90;;;;;;5052794;28;20475;-74
2023/10/29 02:03:01;;;;;;;10.10;3.00;;;14.00;99.90;;;;;;5052763;28;20052;-75
2023/10/29 02:05:27;;;;;;;8.63;2.97;;;13.90;99.90;;;;;;5054324;28;20021;-75
2023/10/29 02:07:52;;;;;;;16.23;2.95;;;13.90;99.90;;;;;;5054866;28;20029;-74
2023/10/29 02:10:27;;;;;;;6.72;2.50;;;13.90;99.90;;;;;;5055002;28;20021;-75
2023/10/29 02:12:53;;;;;;;14.73;3.30;;;13.90;99.90;;;;;;5054739;28;20025;-74
2023/10/29 02:15:19;;;;;;;9.80;3.30;;;13.90;99.90;;;;;;5055201;28;20108;-74
2023/10/29 02:17:45;;;;;;;7.63;2.65;;;13.90;99.90;;;;;;5054892;28;20572;-74
2023/10/29 02:20:12;;;;;;;12.73;2.80;;;13.90;99.90;;;;;;5054627;28;20412;-74
2023/10/29 02:22:38;;;;;;;7.78;2.50;;;13.90;99.90;;;;;;5054620;28;20396;-74
2023/10/29 02:25:04;;;;;;;6.00;2.55;;;13.90;99.90;;;;;;5054947;28;20421;-74
2023/10/29 02:27:33;;;;;;;8.82;2.50;;;13.90;99.90;;;;;;5036937;28;20092;-74
2023/10/29 02:29:59;;;;;;;7.88;2.20;;;13.90;99.90;;;;;;5055033;28;20408;-75
2023/10/29 02:32:25;;;;;;;12.02;3.42;;;13.90;99.90;;;;;;5054754;28;20017;-75
2023/10/29 02:34:54;;;;;;;8.55;2.30;;;13.80;99.90;;;;;;5034605;28;20049;-74
2023/10/29 02:37:20;;;;;;;8.45;2.50;;;13.80;99.90;;;;;;5034189;28;20022;-75
2023/10/29 02:39:47;;;;;;;8.50;2.25;;;13.90;99.90;;;;;;5034694;28;20029;-74
2023/10/29 02:42:16;;;;;;;6.55;2.38;;;13.90;99.90;;;;;;5054556;28;20303;-74
2023/10/29 02:44:43;;;;;;;7.15;2.15;;;14.00;99.90;;;;;;5054016;28;20021;-75
2023/10/29 02:47:08;;;;;;;15.00;2.80;;;13.90;99.90;;;;;;5054686;28;20373;-75
2023/10/29 02:49:35;;;;;;;6.93;2.42;;;13.90;99.90;;;;;;5054638;28;20040;-74
2023/10/29 02:52:00;;;;;;;8.98;2.58;;;13.90;99.90;;;;;;5054596;28;20487;-74
2023/10/29 02:54:29;;;;;;;9.70;2.72;;;14.00;99.90;;;;;;5054554;28;20504;-74
2023/10/29 02:56:58;;;;;;;8.48;2.30;;;14.00;99.90;;;;;;5054185;28;20032;-74
2023/10/29 02:59:24;;;;;;;14.25;3.08;;;14.00;99.90;;;;;;5054167;28;20040;-74
2023/10/29 03:01:50;;;;;;;8.63;2.47;;;14.00;99.90;;;;;;5054101;28;20354;-74
2023/10/29 03:04:16;;;;;;;7.55;1.95;;;14.00;99.90;;;;;;5054255;28;20507;-74
2023/10/29 03:06:42;;;;;;;8.38;3.03;;;14.00;99.90;;;;;;5053719;28;20075;-74
2023/10/29 03:09:08;;;;;;;14.55;3.00;;;14.00;99.90;;;;;;5054137;28;20033;-74
2023/10/29 03:11:39;;;;;;;7.32;2.40;;;14.10;99.90;;;;;;5054246;28;20028;-74
2023/10/29 03:14:05;;;;;;;6.70;2.30;;;14.00;99.90;;;;;;5054330;28;20054;-74
2023/10/29 03:16:32;;;;;;;8.15;2.63;;;14.00;99.90;;;;;;5054038;28;20354;-74
2023/10/29 03:18:58;;;;;;;5.47;2.03;;;14.00;99.90;;;;;;5053169;28;20037;-74
2023/10/29 03:21:24;;;;;;;8.48;2.22;;;14.10;99.90;;;;;;5054213;28;21046;-75
2023/10/29 03:23:52;;;;;;;8.77;2.55;;;14.10;99.90;;;;;;5053906;28;20112;-75
2023/10/29 03:26:18;;;;;;;7.53;2.00;;;14.10;99.90;;;;;;5053804;28;20079;-74
2023/10/29 03:28:44;;;;;;;9.45;1.92;;;14.10;99.90;;;;;;5053807;28;20036;-74
2023/10/29 03:31:14;;;;;;;8.52;2.08;;;14.10;99.90;;;;;;5053738;28;20025;-74
2023/10/29 03:33:41;;;;;;;6.93;1.77;;;14.20;99.90;;;;;;5043393;28;20438;-75
2023/10/29 03:36:08;;;;;;;6.32;2.00;;;14.10;99.90;;;;;;5033720;28;20041;-74
2023/10/29 03:38:34;;;;;;;9.52;2.20;;;14.10;99.90;;;;;;5053750;28;20111;-74
2023/10/29 03:41:00;;;;;;;10.73;2.45;;;14.10;99.90;;;;;;5053452;28;20028;-75
2023/10/29 03:43:26;;;;;;;7.03;2.33;;;14.20;99.90;;;;;;5053760;28;20393;-74
2023/10/29 03:45:52;;;;;;;12.32;2.22;;;14.20;99.90;;;;;;5053421;28;20477;-74
2023/10/29 03:48:21;;;;;;;7.47;2.10;;;14.20;99.90;;;;;;5035381;28;20021;-74
2023/10/29 03:50:49;;;;;;;10.23;3.40;;;14.20;99.90;;;;;;5053120;28;20021;-75
2023/10/29 03:53:15;;;;;;;8.68;3.78;;;14.20;99.90;;;;;;5053230;28;20471;-74
2023/10/29 03:55:44;;;;;;;7.65;1.98;;;14.20;99.90;;;;;;5053603;28;20349;-75
2023/10/29 03:58:10;;;;;;;8.20;1.90;;;14.20;99.90;;;;;;5053193;28;20033;-75
2023/10/29 04:00:36;;;;;;;6.97;2.15;;;14.30;99.90;;;;;;5052853;28;20025;-74
2023/10/29 04:03:02;;;;;;;9.25;3.65;;;14.20;99.90;;;;;;5035172;28;20077;-75
2023/10/29 04:05:34;;;;;;;9.63;2.63;;;14.30;99.90;;;;;;5052952;28;20021;-75
2023/10/29 04:08:00;;;;;;;10.68;3.35;;;14.30;99.90;;;;;;5053482;28;20071;-74
2023/10/29 04:10:26;;;;;;;17.48;3.70;;;14.30;99.90;;;;;;5052952;28;20449;-75
2023/10/29 04:12:52;;;;;;;10.68;3.80;;;14.30;99.90;;;;;;5053162;28;20025;-75
2023/10/29 04:15:19;;;;;;;12.25;3.92;;;14.30;99.90;;;;;;5053001;28;20111;-74
2023/10/29 04:17:49;;;;;;;8.88;3.28;;;14.30;99.90;;;;;;5052465;28;20032;-74
2023/10/29 04:20:15;;;;;;;13.13;3.20;;;14.40;99.90;;;;;;5052889;28;20033;-75
2023/10/29 04:22:44;;;;;;;11.85;3.30;;;14.40;99.90;;;;;;5053022;28;20047;-74
2023/10/29 04:25:10;;;;;;;13.00;3.33;;;14.40;99.90;;;;;;5052999;28;20428;-75
2023/10/29 04:27:37;;;;;;;9.32;3.05;;;14.40;99.90;;;;;;5053152;28;20033;-74
2023/10/29 04:30:03;;;;;;;13.88;3.13;;;14.40;99.90;;;;;;5052399;28;20082;-75
2023/10/29 04:32:29;;;;;;;11.40;3.05;;;14.40;99.90;;;;;;5052104;28;20021;-75
2023/10/29 04:34:55;;;;;;;12.45;2.72;;;14.40;99.90;;;;;;5032806;28;20022;-74
2023/10/29 04:37:22;;;;;;;7.82;2.55;;;14.40;99.90;;;;;;5032678;28;20092;-74
2023/10/29 04:39:50;;;;;;;8.05;2.60;;;14.40;99.90;;;;;;5032920;28;20370;-74
2023/10/29 04:42:19;;;;;;;8.57;2.70;;;14.50;99.90;;;;;;5032708;28;20374;-74
2023/10/29 04:44:45;;;;;;;11.65;2.50;;;14.50;99.90;;;;;;5032745;28;20053;-74
2023/10/29 04:47:16;;;;;;;18.90;3.50;;;14.40;99.90;;;;;;5032432;28;20132;-74
2023/10/29 04:49:43;;;;;;;10.23;2.70;;;14.40;99.90;;;;;;5032693;28;20161;-75
2023/10/29 04:52:09;;;;;;;11.10;3.05;;;14.40;99.90;;;;;;5032500;28;20425;-75
2023/10/29 04:54:38;;;;;;;10.18;2.30;;;14.40;99.90;;;;;;5032824;28;20100;-74
2023/10/29 04:57:04;;;;;;;12.18;2.80;;;14.40;99.90;;;;;;5032893;28;20025;-75
2023/10/29 04:59:30;;;;;;;11.32;2.80;;;14.30;99.90;;;;;;5032299;28;20116;-74
2023/10/29 05:02:05;;;;;;;9.95;2.90;;;14.30;99.90;;;;;;5033108;28;20053;-74
2023/10/29 05:04:31;;;;;;;10.45;2.70;;;14.30;99.90;;;;;;5032642;28;20076;-75
2023/10/29 05:06:57;;;;;;;14.73;2.70;;;14.30;99.90;;;;;;5032834;28;20482;-74
2023/10/29 05:09:24;;;;;;;8.65;2.17;;;14.20;99.90;;;;;;5032195;28;20108;-74
2023/10/29 05:11:52;;;;;;;8.88;1.95;;;14.20;99.90;;;;;;5032377;28;20022;-74
2023/10/29 05:14:18;;;;;;;10.23;2.30;;;14.20;99.90;;;;;;5032553;28;20040;-75
2023/10/29 05:16:47;;;;;;;5.95;1.90;;;14.20;99.90;;;;;;5032564;28;20026;-74
2023/10/29 05:19:13;;;;;;;6.57;1.92;;;14.20;99.90;;;;;;5032241;28;20076;-74
2023/10/29 05:21:39;;;;;;;6.65;2.50;;;14.20;99.90;;;;;;5032195;28;20037;-75
2023/10/29 05:24:07;;;;;;;9.45;2.50;;;14.20;99.90;;;;;;5032304;28;20030;-75
2023/10/29 05:26:33;;;;;;;11.32;2.25;;;14.10;99.90;;;;;;5031791;28;20105;-74
2023/10/29 05:28:59;;;;;;;13.73;2.65;;;14.10;99.90;;;;;;5032181;28;20127;-74
2023/10/29 05:31:28;;;;;;;9.27;2.63;;;14.10;99.90;;;;;;5032194;28;20060;-74
2023/10/29 05:33:54;;;;;;;10.23;2.45;;;14.10;99.90;;;;;;5031882;28;20115;-74
2023/10/29 05:36:20;;;;;;;17.98;2.80;;;14.10;99.90;;;;;;5032091;28;20029;-74
2023/10/29 05:38:49;;;;;;;10.30;3.10;;;14.10;99.90;;;;;;5032229;28;20438;-74
2023/10/29 05:41:15;;;;;;;7.82;2.75;;;14.10;99.90;;;;;;5032681;28;20425;-74
2023/10/29 05:43:41;;;;;;;11.82;3.17;;;14.10;99.90;;;;;;5035741;28;20025;-74
2023/10/29 05:46:13;;;;;;;13.45;4.13;;;14.10;99.90;;;;;;5035582;28;20025;-74
2023/10/29 05:48:39;;;;;;;11.70;2.95;;;14.10;99.90;;;;;;5035749;28;20377;-74
2023/10/29 05:51:12;;;;;;;14.13;2.97;;;14.10;99.90;;;;;;5035696;28;20021;-74
2023/10/29 05:53:39;;;;;;;9.93;2.80;;;14.10;99.90;;;;;;5035849;28;20036;-74
2023/10/29 05:56:05;;;;;;;11.85;3.17;;;14.10;99.90;;;;;;5035863;28;20022;-74
2023/10/29 05:58:32;;;;;;;12.90;3.47;;;14.10;99.90;;;;;;5017447;28;20100;-73
2023/10/29 06:00:57;;;;;;;11.45;3.05;;;14.10;99.90;;;;;;5034930;28;20026;-73
2023/10/29 06:03:24;;;;;;;9.00;2.92;;;14.10;99.90;;;;;;5035379;28;20037;-73
2023/10/29 06:05:52;;;;;;;9.15;2.85;;;14.10;99.90;;;;;;5035031;28;20025;-72
2023/10/29 06:08:18;;;;;;;8.57;3.08;;;14.10;99.90;;;;;;5035305;28;20386;-71
2023/10/29 06:10:47;;;;;;;12.30;3.15;;;14.10;99.90;;;;;;5033723;28;20030;-72
2023/10/29 06:13:13;;;;;;;9.15;2.70;;;14.10;99.90;;;;;;5034727;28;20092;-72
2023/10/29 06:15:39;;;;;;;16.08;3.33;;;14.10;99.90;;;;;;5034866;28;20021;-73
2023/10/29 06:18:06;;;;;;;10.20;3.13;;;14.10;99.90;;;;;;5035426;28;20045;-73
2023/10/29 06:20:38;;;;;;;11.55;3.28;;;14.20;99.90;;;;;;5035399;28;20026;-73
2023/10/29 06:23:04;;;;;;;9.52;3.03;;;14.20;99.90;;;;;;5035366;28;20505;-73
2023/10/29 06:25:30;;;;;;;8.05;3.22;;;14.20;99.90;;;;;;5034892;28;20021;-73
2023/10/29 06:27:56;;;;;;;11.60;3.40;;;14.20;99.90;;;;;;5034960;28;20085;-72
2023/10/29 06:30:22;;;;;;;14.68;3.20;;;14.20;99.90;;;;;;5017154;28;20548;-73
2023/10/29 06:32:48;;;;;;;8.73;3.10;;;14.20;99.90;;;;;;5034931;28;20192;-73
2023/10/29 06:35:14;;;;;;;14.88;4.55;;;14.20;99.90;;;;;;5034795;28;20419;-72
2023/10/29 06:37:39;;;;;;;9.95;3.20;;;14.20;99.90;;;;;;5034563;28;20031;-73
2023/10/29 06:40:07;;;;;;;13.85;3.90;;;14.30;99.90;;;;;;5034514;28;20040;-73
2023/10/29 06:42:33;;;;;;;9.68;3.17;;;14.30;99.90;;;;;;5034610;28;20017;-73
2023/10/29 06:44:59;;;;;;;9.73;2.83;;;14.30;99.90;;;;;;5034532;28;20419;-72
2023/10/29 06:47:31;;;;;;;11.63;3.40;;;14.30;99.90;;;;;;5034731;28;20104;-72
2023/10/29 06:50:01;;;;;;;11.73;2.45;;;14.40;99.90;;;;;;5034504;28;20032;-73
2023/10/29 06:52:27;;;;;;;10.57;3.20;;;14.40;99.90;;;;;;5034118;28;20036;-73
2023/10/29 06:54:53;;;;;;;9.00;2.75;;;14.40;99.90;;;;;;5033612;28;20025;-73
2023/10/29 06:57:22;;;;;;;10.18;2.95;;;14.50;99.90;;;;;;5034195;28;20386;-73
2023/10/29 06:59:48;;;;;;;12.27;3.35;;;14.40;99.90;;;;;;5034321;28;20524;-73
2023/10/29 07:02:14;;;;;;;9.07;2.92;;;14.50;99.90;;;;;;5034267;28;20057;-73
2023/10/29 07:04:43;;;;;;;11.73;3.40;;;14.50;99.90;;;;;;5033898;28;20049;-73
2023/10/29 07:07:11;;;;;;;12.77;3.13;;;14.50;99.90;;;;;;5034063;28;20021;-73
2023/10/29 07:09:37;;;;;;;6.40;2.85;;;14.60;99.90;;;;;;5034357;28;20109;-73
2023/10/29 07:12:03;;;;;;;9.68;3.20;;;14.60;99.90;;;;;;5034093;28;20433;-73
2023/10/29 07:14:29;;;;;;;10.32;2.65;;;14.60;99.90;;;;;;5033588;28;20081;-73
2023/10/29 07:16:58;;;;;;;16.48;3.35;;;14.60;99.90;;;;;;5033445;28;20060;-73
2023/10/29 07:19:24;;;;;;;9.32;3.13;;;14.70;99.90;;;;;;5034104;28;20041;-72
2023/10/29 07:21:50;;;;;;;7.15;2.72;;;14.70;99.90;;;;;;5034320;28;20109;-73
2023/10/29 07:24:16;;;;;;;10.20;3.20;;;14.80;99.90;;;;;;5033081;28;20404;-73
2023/10/29 07:26:44;;;;;;;11.23;3.05;;;14.80;99.90;;;;;;5034261;28;20161;-73
2023/10/29 07:29:14;;;;;;;12.52;3.00;;;14.80;99.90;;;;;;5033791;28;20030;-73
2023/10/29 07:31:40;;;;;;;10.95;3.63;;;14.90;99.90;;;;;;5033689;28;20032;-74
2023/10/29 07:34:06;;;;;;;12.10;3.47;;;14.80;99.90;;;;;;5015741;28;20057;-73
2023/10/29 07:36:32;;;;;;;18.05;3.97;;;14.90;99.90;;;;;;5033688;28;20071;-73
2023/10/29 07:38:58;;;;;;;13.05;3.97;;;14.90;99.90;;;;;;5033745;28;20038;-73
2023/10/29 07:41:24;;;;;;;7.32;3.10;;;14.90;99.90;;;;;;5033643;28;20029;-73
2023/10/29 07:43:50;;;;;;;11.75;3.85;;;14.90;99.90;;;;;;5033626;28;20036;-72
2023/10/29 07:46:20;;;;;;;16.23;3.28;;;15.00;99.90;;;;;;5033515;28;20037;-72
2023/10/29 07:48:47;;;;;;;14.43;4.07;;;14.90;99.90;;;;;;5033476;28;20112;-73
2023/10/29 07:51:16;;;;;;;13.25;4.00;;;15.00;99.90;;;;;;5033273;28;20047;-72
2023/10/29 07:53:45;;;;;;;14.18;4.07;;;15.00;99.90;;;;;;5030075;28;20053;-72
2023/10/29 07:56:12;;;;;;;16.45;3.78;;;15.00;99.90;;;;;;5032662;28;20037;-73
2023/10/29 07:58:38;;;;;;;13.02;3.53;;;15.10;99.90;;;;;;5033191;28;20037;-74
2023/10/29 08:01:11;;;;;;;13.23;3.72;;;15.10;99.90;;;;;;5032787;28;20354;-73
2023/10/29 08:03:38;;;;;;;9.18;3.47;;;15.10;99.90;;;;;;5033134;28;20381;-72
2023/10/29 08:06:08;;;;;;;15.02;3.53;;;15.20;99.90;;;;;;5032859;28;20024;-73
2023/10/29 08:08:34;;;;;;;12.18;4.22;;;15.20;99.90;;;;;;5033164;28;20373;-73
2023/10/29 08:11:06;;;;;;;21.92;4.55;;;15.20;99.90;;;;;;5032922;28;20370;-73
2023/10/29 08:13:34;;;;;;;12.00;3.83;;;15.30;99.90;;;;;;5033019;28;20034;-73
2023/10/29 08:16:06;;;;;;;10.00;3.45;;;15.30;99.90;;;;;;5033136;28;20021;-72
2023/10/29 08:18:33;;;;;;;10.60;3.47;;;15.40;99.90;;;;;;5032551;28;20033;-74
2023/10/29 08:21:00;;;;;;;8.38;2.92;;;15.40;99.90;;;;;;5033202;28;20429;-73
2023/10/29 08:23:25;;;;;;;134.27;105.18;;;15.40;99.90;;;;;;5031504;28;20400;-73
2023/10/29 08:25:52;;;;;;;63.67;46.15;;;15.40;99.90;;;;;;5032642;28;20022;-74
2023/10/29 08:28:19;;;;;;;22.85;13.93;;;15.40;99.90;;;;;;5032908;28;20097;-73
2023/10/29 08:30:48;;;;;;;11.90;4.75;;;15.50;99.90;;;;;;5032907;28;20065;-72
2023/10/29 08:33:13;;;;;;;13.93;4.55;;;15.50;99.90;;;;;;5032842;28;20042;-74
2023/10/29 08:35:44;;;;;;;21.42;4.32;;;;;;;;;;5033038;28;20084;-72
2023/10/29 08:38:10;;;;;;;19.15;4.50;;;15.70;99.90;;;;;;5032921;28;20116;-73
2023/10/29 08:40:36;;;;;;;15.60;4.40;;;15.70;99.90;;;;;;5032664;28;20075;-74
2023/10/29 08:43:08;;;;;;;10.02;4.18;;;15.70;99.90;;;;;;5032907;28;20036;-75
2023/10/29 08:45:34;;;;;;;;;;;15.70;99.90;;;;;;5033184;28;20417;-74
2023/10/29 08:48:00;;;;;;;11.43;3.92;;;15.70;99.90;;;;;;5031955;28;20367;-74
2023/10/29 08:50:28;;;;;;;13.00;4.05;;;15.70;99.90;;;;;;5031327;28;20048;-74
2023/10/29 08:52:54;;;;;;;12.90;3.70;;;15.80;99.90;;;;;;5031548;28;20089;-74
2023/10/29 08:55:20;;;;;;;14.93;4.20;;;15.80;99.90;;;;;;5031449;28;20030;-74
2023/10/29 08:57:46;;;;;;;10.65;4.07;;;15.80;99.90;;;;;;5032261;28;20040;-73
2023/10/29 09:00:15;;;;;;;12.50;4.13;;;15.80;99.90;;;;;;5032206;28;20466;-74
2023/10/29 09:02:41;;;;;;;11.38;3.85;;;15.70;99.90;;;;;;5032198;28;20026;-74
2023/10/29 09:05:08;;;;;;;10.70;4.10;;;15.80;99.90;;;;;;5032928;28;20026;-74
2023/10/29 09:07:35;;;;;;;10.25;3.60;;;15.80;99.90;;;;;;5032693;28;20025;-74
2023/10/29 09:10:02;;;;;;;13.75;4.15;;;15.80;99.90;;;;;;5032922;28;20013;-74
2023/10/29 09:12:27;;;;;;;10.70;3.35;;;15.90;99.90;;;;;;5032874;28;20036;-74
2023/10/29 09:14:53;;;;;;;14.45;4.20;;;15.80;99.90;;;;;;5032403;28;20021;-74
2023/10/29 09:17:19;;;;;;;13.52;3.95;;;15.90;99.90;;;;;;5034763;28;20377;-74
2023/10/29 09:19:45;;;;;;;21.58;7.20;;;15.90;99.90;;;;;;5036573;28;20096;-74
2023/10/29 09:22:12;;;;;;;35.03;15.60;;;15.90;99.90;;;;;;5036651;28;20125;-74
2023/10/29 09:24:37;;;;;;;23.63;9.70;;;16.00;99.90;;;;;;5036497;28;20417;-74
2023/10/29 09:27:03;;;;;;;11.00;4.35;;;16.00;99.90;;;;;;5036474;28;20022;-73
2023/10/29 09:29:31;;;;;;;6.75;2.90;;;16.00;99.90;;;;;;5036494;28;20064;-73
2023/10/29 09:31:58;;;;;;;7.78;1.98;;;16.00;99.90;;;;;;5036593;28;20021;-74
2023/10/29 09:34:26;;;;;;;7.00;2.17;;;16.10;99.90;;;;;;5033149;28;20049;-73
2023/10/29 09:36:52;;;;;;;7.38;2.60;;;16.20;99.90;;;;;;5033269;28;20057;-74
2023/10/29 09:39:18;;;;;;;11.30;3.42;;;16.20;99.90;;;;;;5034322;28;20052;-73
2023/10/29 09:41:44;;;;;;;13.50;2.25;;;16.20;99.90;;;;;;5036362;28;20018;-74
2023/10/29 09:44:17;;;;;;;9.00;2.30;;;16.30;99.90;;;;;;5035072;28;20060;-74
2023/10/29 09:46:45;;;;;;;7.18;2.03;;;16.40;99.90;;;;;;5036210;28;20104;-74
2023/10/29 09:49:13;;;;;;;8.13;2.30;;;16.40;99.90;;;;;;5034691;28;20350;-74
2023/10/29 09:51:41;;;;;;;9.60;2.78;;;16.50;99.90;;;;;;5036429;28;20474;-74
2023/10/29 09:54:16;;;;;;;9.35;2.30;;;16.60;99.90;;;;;;5035913;28;20127;-73
2023/10/29 09:56:49;;;;;;;8.88;2.10;;;16.60;99.90;;;;;;5035836;28;20052;-74
2023/10/29 09:59:15;;;;;;;9.63;2.40;;;16.70;99.90;;;;;;5033160;28;20029;-74
2023/10/29 10:01:41;;;;;;;10.43;2.53;;;16.70;99.90;;;;;;5031506;28;20037;-73
2023/10/29 10:04:07;;;;;;;6.97;2.08;;;16.80;99.90;;;;;;5033606;28;20366;-73
2023/10/29 10:06:36;;;;;;;7.68;2.30;;;16.90;99.90;;;;;;5035590;28;20025;-73
2023/10/29 10:09:02;;;;;;;7.82;2.40;;;17.00;99.90;;;;;;5035777;28;20035;-74
2023/10/29 10:11:31;;;;;;;9.48;2.30;;;17.00;99.90;;;;;;5035836;28;20034;-74
2023/10/29 10:14:01;;;;;;;9.60;2.03;;;17.10;99.90;;;;;;5035341;28;20381;-75
2023/10/29 10:16:26;;;;;;;5.82;2.03;;;17.20;99.90;;;;;;5035675;28;20422;-74
2023/10/29 10:18:54;;;;;;;11.18;1.92;;;17.30;99.90;;;;;;5035580;28;20508;-74
2023/10/29 10:21:41;;;;;;;9.23;2.08;;;17.30;99.90;;;;;;5035236;28;20029;-75
2023/10/29 10:24:07;;;;;;;7.25;1.98;;;17.40;99.90;;;;;;5035449;28;20049;-74
2023/10/29 10:26:38;;;;;;;8.32;1.70;;;17.40;99.90;;;;;;5035282;28;20108;-73
2023/10/29 10:29:06;;;;;;;7.38;1.52;;;17.50;99.90;;;;;;5034959;28;20018;-73
2023/10/29 10:31:33;;;;;;;8.95;1.63;;;17.50;99.90;;;;;;5035188;28;20077;-75
2023/10/29 10:34:19;;;;;;;14.68;1.88;;;17.60;99.90;;;;;;5022510;28;20049;-73
2023/10/29 10:36:48;;;;;;;11.07;1.60;;;17.60;99.90;;;;;;5014999;28;20414;-74
2023/10/29 10:39:14;;;;;;;4.40;1.20;;;17.70;99.90;;;;;;5012577;28;20129;-74
2023/10/29 10:41:45;;;;;;;8.77;1.60;;;17.70;99.90;;;;;;5012623;28;20022;-74
2023/10/29 10:44:16;;;;;;;10.98;1.88;;;17.70;99.90;;;;;;5012936;28;20030;-74
2023/10/29 10:46:50;;;;;;;5.07;1.70;;;17.80;99.90;;;;;;5014982;28;20022;-74
2023/10/29 10:49:17;;;;;;;8.73;1.77;;;17.90;99.90;;;;;;4997600;28;20049;-74
2023/10/29 10:51:44;;;;;;;9.30;1.60;;;17.90;99.90;;;;;;5014905;28;20387;-74
2023/10/29 10:54:11;;;;;;;9.45;1.70;;;17.90;99.90;;;;;;5014592;28;20029;-74
2023/10/29 10:56:37;;;;;;;8.90;1.90;;;17.90;99.90;;;;;;5015173;28;20022;-74
2023/10/29 10:59:05;;;;;;;8.65;1.98;;;18.00;99.90;;;;;;5014729;28;20033;-74
2023/10/29 11:01:32;;;;;;;8.23;1.63;;;18.00;99.90;;;;;;5014388;28;20026;-74
2023/10/29 11:04:03;;;;;;;6.38;1.60;;;17.90;99.90;;;;;;5014638;28;20025;-74
2023/10/29 11:06:32;;;;;;;4.75;1.52;;;18.00;99.90;;;;;;5014891;28;20026;-73
2023/10/29 11:09:02;;;;;;;10.35;1.98;;;18.00;99.90;;;;;;5014529;28;20149;-73
2023/10/29 11:11:38;;;;;;;9.40;1.77;;;17.90;99.90;;;;;;5014919;28;20022;-74
2023/10/29 11:14:15;;;;;;;12.05;2.33;;;18.00;99.90;;;;;;5014454;28;20049;-74
2023/10/29 11:16:55;;;;;;;5.45;1.58;;;18.00;99.90;;;;;;4996432;28;20533;-74
2023/10/29 11:19:35;;;;;;;8.73;1.98;;;17.90;99.90;;;;;;5014450;28;20046;-74
2023/10/29 11:22:21;;;;;;;7.95;1.77;;;17.90;99.90;;;;;;5014311;28;20034;-74
2023/10/29 11:25:08;;;;;;;8.70;2.08;;;17.90;99.90;;;;;;4996302;28;20030;-74
2023/10/29 11:27:45;;;;;;;9.65;2.15;;;17.90;99.90;;;;;;5014022;28;20022;-73
2023/10/29 11:30:14;;;;;;;8.52;2.05;;;17.90;99.90;;;;;;5014110;28;20351;-74
2023/10/29 11:32:41;;;;;;;11.95;2.08;;;17.90;99.90;;;;;;5014218;28;20104;-74
2023/10/29 11:35:17;;;;;;;8.30;1.73;;;17.90;99.90;;;;;;5014000;28;20382;-74
2023/10/29 11:38:01;;;;;;;10.52;1.92;;;17.90;99.90;;;;;;5014023;28;20034;-74
2023/10/29 11:40:29;;;;;;;13.25;2.38;;;17.90;99.90;;;;;;5012810;28;20081;-75
2023/10/29 11:42:57;;;;;;;14.50;1.80;;;17.90;99.90;;;;;;5013760;28;20038;-75
2023/10/29 11:45:28;;;;;;;8.77;1.88;;;17.90;99.90;;;;;;5013236;28;20061;-76
2023/10/29 11:48:14;;;;;;;6.50;1.50;;;17.90;99.90;;;;;;5012690;28;20026;-76
2023/10/29 11:50:44;;;;;;;9.30;2.05;;;17.90;99.90;;;;;;5013833;28;20026;-77
2023/10/29 11:53:24;;;;;;;8.40;2.38;;;18.00;99.90;;;;;;5013258;28;20029;-75
2023/10/29 11:55:57;;;;;;;11.48;1.65;;;17.90;99.90;;;;;;5013846;28;20026;-76
2023/10/29 11:58:24;;;;;;;13.90;1.80;;;17.90;99.90;;;;;;5013627;28;20524;-78
2023/10/29 12:00:51;;;;;;;12.27;2.17;;;17.90;99.90;;;;;;5013592;28;20085;-78
2023/10/29 12:03:21;;;;;;;7.38;1.95;;;17.90;99.90;;;;;;5013667;28;20101;-76
2023/10/29 12:05:51;;;;;;;7.85;1.77;;;17.90;99.90;;;;;;5013863;28;20374;-79
2023/10/29 12:08:17;;;;;;;7.13;1.73;;;17.80;99.90;;;;;;5011560;28;20062;-77
2023/10/29 12:10:51;;;;;;;11.38;2.75;;;17.90;99.90;;;;;;5010931;28;20030;-77
2023/10/29 12:13:18;;;;;;;12.55;1.95;;;17.80;99.90;;;;;;5011029;28;20672;-77
2023/10/29 12:16:02;;;;;;;9.63;2.25;;;17.80;99.90;;;;;;5013207;28;20049;-77
2023/10/29 12:18:28;;;;;;;8.85;1.98;;;17.80;99.90;;;;;;5013068;28;20120;-77
2023/10/29 12:21:07;;;;;;;12.85;2.88;;;17.80;99.90;;;;;;5013276;28;20042;-76
2023/10/29 12:23:35;;;;;;;10.43;3.03;;;17.80;99.90;;;;;;4995512;28;20036;-77
2023/10/29 12:26:05;;;;;;;7.45;2.45;;;17.70;99.90;;;;;;5013577;28;20025;-77
2023/10/29 12:28:36;;;;;;;9.82;2.28;;;17.80;99.90;;;;;;5013506;28;20062;-77
2023/10/29 12:31:03;;;;;;;7.38;2.28;;;17.70;99.90;;;;;;5013201;28;20109;-74
2023/10/29 12:33:34;;;;;;;9.95;2.20;;;17.70;99.90;;;;;;5021366;28;20125;-77
2023/10/29 12:36:05;;;;;;;7.57;2.40;;;17.70;99.90;;;;;;5032437;28;20053;-77
2023/10/29 12:38:31;;;;;;;7.57;2.33;;;17.70;99.90;;;;;;5032522;28;20067;-76
2023/10/29 12:41:19;;;;;;;9.80;2.25;;;17.70;99.90;;;;;;5032789;28;20057;-77
2023/10/29 12:43:47;;;;;;;13.45;2.17;;;17.80;99.90;;;;;;5032526;28;20377;-77
2023/10/29 12:46:17;;;;;;;7.00;2.00;;;17.70;99.90;;;;;;5032854;28;20108;-77